KTYS/TYS METAR and TAF weather

Enter ICAO airport designator
Station Type Date Time Source
KTYS METAR 2021/04/13 06:53 UTC NOAA

KTYS 130653Z 03004KT 10SM CLR 13/05 A3000 RMK AO2 SLP151 T01330050


Station Type Date Time Source
KTYS Decoded METAR 2021/04/13 06:53 UTC NOAA

MCGHEE TYSON AIRPORT, TN, United States (KTYS) 35-49N 083-59W 302M
Apr 13, 2021 - 02:53 AM EDT / 2021.04.13 0653 UTC
Wind: from the NNE (030 degrees) at 5 MPH (4 KT):0
Visibility: 10 mile(s):0
Sky conditions: clear
Temperature: 55.9 F (13.3 C)
Dew Point: 41.0 F (5.0 C)
Relative Humidity: 57%
Pressure (altimeter): 30 in. Hg (1015 hPa)
ob: KTYS 130653Z 03004KT 10SM CLR 13/05 A3000 RMK AO2 SLP151 T01330050
cycle: 7

Station Type Date Time Source
KTYS TAF 2021/04/13 06:36 UTC NOAA

TAF KTYS 130535Z 1306/1406 VRB03KT P6SM FEW250
FM131800 36004KT P6SM BKN090
FM132300 05004KT P6SM BKN180

Example: see airport list